createdAt,value
2023-03-26T00:01:09.843Z,1010.10
2023-03-26T00:06:09.097Z,1010.03
2023-03-26T00:11:09.237Z,1009.87
2023-03-26T00:16:08.396Z,1009.82
2023-03-26T00:21:07.552Z,1009.86
2023-03-26T00:26:07.683Z,1009.74
2023-03-26T00:31:05.108Z,1009.69
2023-03-26T00:36:05.334Z,1009.66
2023-03-26T00:41:03.440Z,1009.60
2023-03-26T00:46:03.784Z,1009.53
2023-03-26T00:51:02.088Z,1009.57
2023-03-26T00:56:01.423Z,1009.48
2023-03-26T01:01:00.562Z,1009.45
2023-03-26T01:05:59.693Z,1009.54
2023-03-26T01:10:58.821Z,1009.48
2023-03-26T01:16:00.232Z,1009.38
2023-03-26T01:20:58.350Z,1009.35
2023-03-26T01:25:58.726Z,1009.40
2023-03-26T01:30:55.857Z,1009.30
2023-03-26T01:35:55.331Z,1009.24
2023-03-26T01:40:54.358Z,1009.14
2023-03-26T01:45:54.787Z,1009.16
2023-03-26T01:50:52.933Z,1009.22
2023-03-26T01:55:52.399Z,1009.18
2023-03-26T02:00:52.431Z,1009.07
2023-03-26T02:05:50.725Z,1009.05
2023-03-26T02:10:49.989Z,1009.05
2023-03-26T02:15:50.262Z,1008.85
2023-03-26T02:20:48.503Z,1008.69
2023-03-26T02:25:47.770Z,1008.51
2023-03-26T02:30:48.028Z,1008.33
2023-03-26T02:35:46.376Z,1008.27
2023-03-26T02:40:46.522Z,1008.24
2023-03-26T02:45:44.883Z,1008.03
2023-03-26T02:50:43.941Z,1007.87
2023-03-26T02:55:45.272Z,1007.72
2023-03-26T03:00:42.541Z,1007.64
2023-03-26T03:05:41.855Z,1007.66
2023-03-26T03:10:41.121Z,1007.59
2023-03-26T03:15:40.395Z,1007.51
2023-03-26T03:20:40.693Z,1007.36
2023-03-26T03:25:39.986Z,1007.40
2023-03-26T03:30:38.256Z,1007.42
2023-03-26T03:35:37.595Z,1007.31
2023-03-26T03:40:36.679Z,1007.05
2023-03-26T03:45:35.928Z,1006.92
2023-03-26T03:50:37.244Z,1006.87
2023-03-26T03:55:35.514Z,1006.88
2023-03-26T04:00:33.788Z,1006.86
2023-03-26T04:05:34.097Z,1006.73
2023-03-26T04:10:33.402Z,1006.59
2023-03-26T04:15:32.644Z,1006.61
2023-03-26T04:20:32.914Z,1006.49
2023-03-26T04:25:30.176Z,1006.62
2023-03-26T04:30:29.446Z,1006.61
2023-03-26T04:35:28.745Z,1006.64
2023-03-26T04:40:29.033Z,1006.59
2023-03-26T04:45:28.326Z,1006.58
2023-03-26T04:50:26.632Z,1006.49
2023-03-26T04:55:25.918Z,1006.61
2023-03-26T05:00:25.221Z,1006.52
2023-03-26T05:05:24.505Z,1006.38
2023-03-26T05:10:25.817Z,1006.25
2023-03-26T05:15:24.102Z,1006.09
2023-03-26T05:20:22.406Z,1005.94
2023-03-26T05:25:21.672Z,1005.81
2023-03-26T05:30:21.937Z,1005.44
2023-03-26T05:35:19.238Z,1005.32
2023-03-26T05:40:19.481Z,1005.15
2023-03-26T05:45:18.730Z,1004.97
2023-03-26T05:50:17.996Z,1004.87
2023-03-26T05:55:17.265Z,1004.59
2023-03-26T06:00:16.540Z,1004.41
2023-03-26T06:05:15.810Z,1004.39
2023-03-26T06:10:17.991Z,1004.30
2023-03-26T06:15:14.286Z,1004.40
2023-03-26T06:20:15.560Z,1004.43
2023-03-26T06:25:12.843Z,1004.53
2023-03-26T06:30:12.100Z,1004.54
2023-03-26T06:35:11.410Z,1004.64
2023-03-26T06:40:11.973Z,1004.78
2023-03-26T06:45:09.914Z,1004.76
2023-03-26T06:50:09.313Z,1004.76
2023-03-26T06:55:08.467Z,1004.72
2023-03-26T07:00:08.547Z,1004.35
2023-03-26T07:05:08.817Z,1004.05
2023-03-26T07:10:05.075Z,1003.94
2023-03-26T07:15:05.353Z,1003.84
2023-03-26T07:20:04.637Z,1003.88
2023-03-26T07:25:03.923Z,1003.72
2023-03-26T07:30:03.225Z,1003.70
2023-03-26T07:35:04.496Z,1003.84
2023-03-26T07:40:02.755Z,1004.11
2023-03-26T07:45:00.208Z,1004.25
2023-03-26T07:50:00.273Z,1004.33
2023-03-26T07:55:00.591Z,1004.35
2023-03-26T07:59:59.885Z,1004.35
2023-03-26T08:04:59.233Z,1004.69
2023-03-26T08:09:57.389Z,1004.77
2023-03-26T08:14:56.672Z,1004.49
2023-03-26T08:19:55.956Z,1004.65
2023-03-26T08:24:55.255Z,1004.55
2023-03-26T08:29:54.547Z,1004.51
2023-03-26T08:34:53.916Z,1004.39
2023-03-26T08:39:52.976Z,1004.31
2023-03-26T08:44:52.280Z,1004.24
2023-03-26T08:49:52.540Z,1004.43
2023-03-26T08:54:49.815Z,1004.33
2023-03-26T08:59:52.123Z,1004.20
2023-03-26T09:04:49.411Z,1004.29
2023-03-26T09:09:48.702Z,1004.24
2023-03-26T09:14:47.990Z,1004.06
2023-03-26T09:19:47.261Z,1003.71
2023-03-26T09:24:46.523Z,1003.58
2023-03-26T09:29:46.791Z,1003.49
2023-03-26T09:34:45.058Z,1003.49
2023-03-26T09:39:45.357Z,1003.45
2023-03-26T09:44:44.605Z,1003.83
2023-03-26T09:49:42.945Z,1003.78
2023-03-26T09:54:43.207Z,1003.50
2023-03-26T09:59:41.501Z,1003.22
2023-03-26T10:04:40.798Z,1003.21
2023-03-26T10:09:40.062Z,1003.39
2023-03-26T10:14:39.337Z,1003.28
2023-03-26T10:19:39.611Z,1003.46
2023-03-26T10:24:37.828Z,1003.56
2023-03-26T10:29:37.094Z,1003.63
2023-03-26T10:34:37.335Z,1003.91
2023-03-26T10:39:36.416Z,1004.09
2023-03-26T10:44:34.786Z,1004.08
2023-03-26T10:49:35.094Z,1004.04
2023-03-26T10:54:34.336Z,1003.89
2023-03-26T10:59:33.661Z,1004.09
2023-03-26T11:04:31.950Z,1003.96
2023-03-26T11:09:31.243Z,1003.89
2023-03-26T11:14:34.974Z,1003.98
2023-03-26T11:19:31.785Z,1004.21
2023-03-26T11:24:29.873Z,1003.99
2023-03-26T11:29:32.146Z,1003.64
2023-03-26T11:34:28.358Z,1003.67
2023-03-26T11:39:28.650Z,1003.46
2023-03-26T11:44:27.084Z,1003.54
2023-03-26T11:49:26.367Z,1003.31
2023-03-26T11:54:26.425Z,1003.05
2023-03-26T11:59:23.702Z,1003.16
2023-03-26T12:04:24.059Z,1002.83
2023-03-26T12:09:22.307Z,1002.81
2023-03-26T12:14:21.582Z,1003.07
2023-03-26T12:19:22.948Z,1002.66
2023-03-26T12:24:20.210Z,1002.75
2023-03-26T12:29:19.322Z,1002.52
2023-03-26T12:34:18.649Z,1002.61
2023-03-26T12:40:10.169Z,1002.57
2023-03-26T12:44:47.303Z,1002.48
2023-03-26T12:49:16.853Z,1002.39
2023-03-26T12:54:15.797Z,1002.31
2023-03-26T12:59:15.079Z,1002.23
2023-03-26T13:04:14.397Z,1002.27
2023-03-26T13:09:13.688Z,1002.07
2023-03-26T13:14:15.010Z,1001.97
2023-03-26T13:19:12.271Z,1002.04
2023-03-26T13:24:11.584Z,1001.84
2023-03-26T13:29:11.989Z,1001.76
2023-03-26T13:34:10.376Z,1001.74
2023-03-26T13:39:10.369Z,1001.63
2023-03-26T13:44:08.558Z,1001.57
2023-03-26T13:49:07.662Z,1001.50
2023-03-26T13:54:06.965Z,1001.43
2023-03-26T13:59:06.282Z,1001.32
2023-03-26T14:04:05.560Z,1001.38
2023-03-26T14:09:04.792Z,1001.23
2023-03-26T14:14:04.091Z,1001.17
2023-03-26T14:19:03.420Z,1001.10
2023-03-26T14:24:03.699Z,1000.89
2023-03-26T14:29:03.152Z,1000.77
2023-03-26T14:34:02.245Z,1000.67
2023-03-26T14:39:00.823Z,1000.67
2023-03-26T14:43:58.725Z,1000.76
2023-03-26T14:48:58.989Z,1000.90
2023-03-26T14:53:58.320Z,1000.86
2023-03-26T14:58:57.595Z,1000.81
2023-03-26T15:03:58.189Z,1000.84
2023-03-26T15:08:56.082Z,1000.69
2023-03-26T15:13:55.372Z,1000.82
2023-03-26T15:18:54.974Z,1000.86
2023-03-26T15:23:53.970Z,1000.84
2023-03-26T15:28:54.236Z,1000.92
2023-03-26T15:33:52.998Z,1001.20
2023-03-26T15:38:51.733Z,1001.69
2023-03-26T15:44:24.256Z,1002.88
2023-03-26T15:48:51.688Z,1002.81
2023-03-26T15:53:50.933Z,1002.48
2023-03-26T15:58:48.870Z,1002.55
2023-03-26T16:03:48.492Z,1002.48
2023-03-26T16:08:47.687Z,1002.47
2023-03-26T16:13:45.588Z,1002.26
2023-03-26T16:18:46.069Z,1002.55
2023-03-26T16:23:47.887Z,1002.50
2023-03-26T16:28:45.726Z,1003.04
2023-03-26T16:33:44.836Z,1002.92
2023-03-26T16:38:42.993Z,1002.82
2023-03-26T16:43:42.078Z,1002.90
2023-03-26T16:48:41.643Z,1002.93
2023-03-26T16:53:40.713Z,1003.15
2023-03-26T16:58:40.221Z,1003.02
2023-03-26T17:03:41.453Z,1002.90
2023-03-26T17:08:39.522Z,1002.90
2023-03-26T17:13:39.756Z,1002.80
2023-03-26T17:18:37.043Z,1003.52
2023-03-26T17:23:38.348Z,1004.52
2023-03-26T17:28:35.486Z,1004.78
2023-03-26T17:33:35.863Z,1004.76
2023-03-26T17:38:34.117Z,1004.65
2023-03-26T17:43:34.457Z,1004.56
2023-03-26T17:48:32.706Z,1004.27
2023-03-26T17:53:33.047Z,1003.84
2023-03-26T17:58:30.981Z,1003.60
2023-03-26T18:03:31.178Z,1003.52
2023-03-26T18:08:29.951Z,1003.53
2023-03-26T18:13:29.272Z,1003.45
2023-03-26T18:18:28.675Z,1003.51
2023-03-26T18:23:27.768Z,1003.49
2023-03-26T18:28:30.966Z,1003.79
2023-03-26T18:33:28.236Z,1003.84
2023-03-26T18:38:35.414Z,1003.74
2023-03-26T18:43:34.348Z,1003.66
2023-03-26T18:48:23.959Z,1003.52
2023-03-26T18:53:24.208Z,1003.58
2023-03-26T18:58:24.242Z,1003.31
2023-03-26T19:03:23.749Z,1003.21
2023-03-26T19:08:21.860Z,1003.37
2023-03-26T19:13:20.099Z,1003.22
2023-03-26T19:18:20.319Z,1003.27
2023-03-26T19:23:18.650Z,1003.22
2023-03-26T19:28:18.867Z,1003.21
2023-03-26T19:33:19.163Z,1003.23
2023-03-26T19:38:16.444Z,1003.26
2023-03-26T19:43:15.719Z,1003.41
2023-03-26T19:48:15.701Z,1003.30
2023-03-26T19:53:16.876Z,1003.31
2023-03-26T19:58:13.422Z,1003.12
2023-03-26T20:03:16.691Z,1003.08
2023-03-26T20:08:11.808Z,1002.94
2023-03-26T20:13:12.093Z,1002.98
2023-03-26T20:18:11.190Z,1002.86
2023-03-26T20:23:09.454Z,1002.82
2023-03-26T20:28:09.766Z,1002.65
2023-03-26T20:33:12.457Z,1002.55
2023-03-26T20:38:09.421Z,1002.71
2023-03-26T20:43:09.373Z,1002.76
2023-03-26T20:48:05.557Z,1002.68
2023-03-26T20:53:04.552Z,1002.43
2023-03-26T20:58:04.209Z,1002.66
2023-03-26T21:03:02.952Z,1002.47
2023-03-26T21:08:01.089Z,1002.76
2023-03-26T21:13:01.472Z,1002.76
2023-03-26T21:18:00.517Z,1002.75
2023-03-26T21:22:58.694Z,1002.88
2023-03-26T21:27:58.952Z,1002.85
2023-03-26T21:33:00.213Z,1002.75
2023-03-26T21:37:57.361Z,1002.69
2023-03-26T21:42:56.530Z,1002.69
2023-03-26T21:47:56.685Z,1002.69
2023-03-26T21:52:54.867Z,1002.74
2023-03-26T21:57:54.996Z,1002.62
2023-03-26T22:02:53.339Z,1002.76
2023-03-26T22:07:52.816Z,1002.94
2023-03-26T22:12:51.931Z,1003.16
2023-03-26T22:17:52.130Z,1003.29
2023-03-26T22:22:50.231Z,1003.22
2023-03-26T22:27:49.591Z,1003.40
2023-03-26T22:32:48.812Z,1003.36
2023-03-26T22:37:47.987Z,1003.39
2023-03-26T22:42:47.875Z,1003.45
2023-03-26T22:47:46.474Z,1003.54
2023-03-26T22:52:46.656Z,1003.47
2023-03-26T22:57:44.790Z,1003.47
2023-03-26T23:02:43.985Z,1003.53
2023-03-26T23:07:44.139Z,1003.65
2023-03-26T23:12:42.291Z,1003.66
2023-03-26T23:17:41.510Z,1003.82
2023-03-26T23:22:40.663Z,1003.74
2023-03-26T23:27:39.808Z,1003.67
2023-03-26T23:32:39.980Z,1003.69
2023-03-26T23:37:39.126Z,1003.81
2023-03-26T23:42:37.255Z,1003.84
2023-03-26T23:47:36.454Z,1003.90
2023-03-26T23:52:36.581Z,1004.02
2023-03-26T23:57:34.884Z,1004.10
